Latest Weather Observations for Cape Byron

IDN60801

Issued at 8:32 pm EST Thursday 24 August 2017 (issued every 30 minutes, with the page automatically refreshed every 10 minutes)

About weather observations | Map of weather stations | Latest weather observations for NSW | Other Formats
Station Details ID: 058216 Name: CAPE BYRON AWS Lat: -28.64 Lon: 153.64 Height: 95.0 m
Data from the previous 72 hours. | See also: Recent months at Cape Byron
Date/Time
EST
Temp
°C
App
Temp
°C
Dew
Point
°C
Rel
Hum
%
Delta-T
°C
Wind Press
QNH
hPa
Press
MSL
hPa
Rain since
9am
mm
Dir  Spd
km/h
Gust
km/h
Spd
kts
Gust
kts
24/08:30pm 15.7 12.7 13.7 88 1.1 WSW 22 30 12 16 1015.0 1014.9 1.2
24/08:00pm 16.1 14.6 14.3 89 1.0 SW 15 20 8 11 1015.0 1014.9 1.2
24/07:30pm 16.0 14.9 14.2 89 1.0 SW 13 17 7 9 1014.9 1014.8 1.2
24/07:00pm 17.1 16.7 14.2 83 1.7 W 9 17 5 9 1014.6 1014.5 1.2
24/06:30pm 18.4 17.3 14.3 77 2.4 NNE 13 15 7 8 1013.8 1013.7 1.2
24/06:00pm 18.7 16.8 14.2 75 2.6 NNE 17 24 9 13 1013.7 1013.6 1.2
24/05:30pm 19.0 18.3 14.3 74 2.7 N 11 20 6 11 1013.3 1013.2 1.2
24/05:00pm 18.8 16.1 13.6 72 3.0 E 20 35 11 19 1012.5 1012.4 1.2
24/04:40pm 18.4 15.6 13.1 71 3.0 NE 20 48 11 26 1012.6 1012.5 1.2
24/04:30pm 20.5 19.8 14.2 67 3.7 NW 11 22 6 12 1012.6 1012.5 1.0
24/04:20pm 20.4 14.9 13.6 65 3.9 N 35 54 19 29 1011.4 1011.2 1.0
24/04:00pm 20.4 16.7 15.0 71 3.2 NNE 28 43 15 23 1011.8 1011.7 1.0
24/03:30pm 20.2 17.6 15.8 76 2.6 NNE 24 37 13 20 1012.0 1011.9 1.0
24/03:00pm 20.9 17.7 16.3 75 2.8 NNE 28 37 15 20 1012.4 1012.3 1.0
24/02:30pm 21.1 19.0 16.1 73 3.0 NNE 22 33 12 18 1012.6 1012.5 1.0
24/02:00pm 22.0 20.2 15.4 66 4.0 N 19 28 10 15 1012.9 1012.8 1.0
24/01:30pm 22.6 22.6 16.2 67 3.9 N 11 17 6 9 1013.4 1013.3 1.0
24/01:00pm 20.0 18.4 15.0 73 2.9 N 17 30 9 16 1013.7 1013.6 1.0
24/12:30pm 20.7 18.4 14.6 68 3.6 N 20 32 11 17 1014.0 1013.9 0.0
24/12:00pm 21.6 19.6 15.4 68 3.7 N 20 28 11 15 1014.5 1014.4 0.0
24/11:30am 21.3 20.2 15.2 68 3.6 N 15 20 8 11 1015.0 1014.9 0.0
24/11:00am 21.9 21.9 15.3 66 3.9 N 9 15 5 8 1015.4 1015.3 0.0
24/10:30am 21.3 21.3 15.2 68 3.6 N 9 15 5 8 1015.8 1015.7 0.0
24/10:00am 20.8 21.3 15.1 70 3.4 N 6 9 3 5 1016.1 1016.0 0.0
24/09:30am 20.1 20.8 15.5 75 2.7 N 6 9 3 5 1016.4 1016.2 0.0
24/09:00am 18.8 19.8 15.3 80 2.1 NNW 4 9 2 5 1016.7 1016.5 0.0
24/08:30am 18.6 19.3 15.5 82 1.8 NNW 6 7 3 4 1016.7 1016.5 0.0
24/08:00am 17.5 17.6 15.5 88 1.2 W 9 15 5 8 1016.5 1016.3 0.0
24/07:30am 17.9 18.6 16.2 90 1.0 NW 7 15 4 8 1016.4 1016.2 0.0
24/07:00am 17.6 18.0 16.3 92 0.8 NNW 9 17 5 9 1016.3 1016.1 0.0
24/06:30am 17.3 16.9 16.3 94 0.6 NNW 13 20 7 11 1016.1 1016.0 0.0
24/06:00am 16.6 17.1 15.5 93 0.6 NNW 7 11 4 6 1016.3 1016.1 0.0
24/05:30am 17.1 17.7 15.4 90 1.0 NNW 6 11 3 6 1016.0 1015.9 0.0
24/05:00am 17.7 17.2 15.9 89 1.1 NW 13 24 7 13 1015.5 1015.4 0.0
24/04:30am 18.0 17.2 16.0 88 1.2 NW 15 22 8 12 1015.4 1015.3 0.0
24/04:00am 18.5 16.4 16.3 87 1.3 NNW 22 33 12 18 1015.2 1015.1 0.0
24/03:30am 18.5 17.4 17.2 92 0.8 N 19 28 10 15 1015.3 1015.2 0.0
24/03:00am 18.2 18.5 18.0 99 0.1 NNW 13 17 7 9 1015.6 1015.5 0.0
24/02:30am 18.2 18.5 18.0 99 0.1 NNW 13 19 7 10 1015.9 1015.8 0.0
24/02:00am 18.2 18.1 17.9 98 0.2 NNW 15 19 8 10 1016.3 1016.1 0.0
24/01:30am 18.0 18.5 17.5 97 0.3 NNW 11 15 6 8 1016.7 1016.5 0.0
24/01:00am 17.7 18.0 16.9 95 0.5 NW 11 17 6 9 1017.1 1016.9 0.0
24/12:30am 17.6 18.1 16.5 93 0.7 NW 9 13 5 7 1017.5 1017.3 0.0
24/12:00am 17.9 18.5 16.8 93 0.7 NNW 9 13 5 7 1017.8 1017.6 0.0
 
Date/Time
EST
Temp
°C
App
Temp
°C
Dew
Point
°C
Rel
Hum
%
Delta-T
°C
Wind Press
QNH
hPa
Press
MSL
hPa
Rain since
9am
mm
Dir  Spd
km/h
Gust
km/h
Spd
kts
Gust
kts
23/11:30pm 18.0 18.6 16.9 93 0.7 NW 9 13 5 7 1017.9 1017.7 0.0
23/11:00pm 18.0 18.3 16.9 93 0.7 NNW 11 15 6 8 1017.9 1017.7 0.0
23/10:30pm 18.5 17.8 17.3 93 0.7 NNW 17 22 9 12 1018.0 1017.8 0.0
23/10:00pm 18.6 18.6 17.3 92 0.8 NNW 13 20 7 11 1018.1 1017.9 0.0
23/09:30pm 18.8 18.8 17.1 90 1.0 NNW 13 19 7 10 1018.2 1018.0 0.0
23/09:00pm 19.2 18.8 17.2 88 1.2 N 15 20 8 11 1018.2 1018.0 0.0
23/08:30pm 19.8 18.2 16.6 82 1.9 NNE 20 28 11 15 1018.2 1018.0 0.0
23/08:00pm 19.1 19.0 16.9 87 1.3 N 13 20 7 11 1018.2 1018.0 0.0
23/07:30pm 19.3 17.8 16.2 82 1.9 N 19 24 10 13 1018.2 1018.0 0.0
23/07:00pm 19.4 18.2 16.2 82 1.9 N 17 24 9 13 1018.1 1017.9 0.0
23/06:30pm 19.4 18.2 16.2 82 1.9 NNE 17 22 9 12 1017.9 1017.7 0.0
23/06:00pm 19.4 18.9 15.9 80 2.1 NE 13 19 7 10 1017.7 1017.5 0.0
23/05:30pm 19.5 19.3 15.6 78 2.3 NNE 11 17 6 9 1017.7 1017.5 0.0
23/05:00pm 19.9 19.2 15.3 75 2.7 NNE 13 17 7 9 1017.6 1017.4 0.0
23/04:30pm 20.4 20.0 15.2 72 3.1 NNE 11 15 6 8 1017.4 1017.2 0.0
23/04:00pm 20.7 19.2 15.3 71 3.2 NE 17 20 9 11 1017.1 1016.9 0.0
23/03:30pm 21.5 20.3 15.1 67 3.8 NE 15 19 8 10 1017.1 1016.9 0.0
23/03:00pm 22.7 22.5 15.8 65 4.2 ENE 11 15 6 8 1017.4 1017.2 0.0
23/02:30pm 22.6 22.5 15.9 66 4.1 ENE 11 13 6 7 1017.5 1017.3 0.0
23/02:00pm 23.4 23.1 16.4 64 4.3 E 13 15 7 8 1017.7 1017.5 0.0
23/01:30pm 23.5 23.4 17.0 67 4.0 E 13 15 7 8 1018.1 1017.9 0.0
23/01:00pm 21.8 21.0 16.1 70 3.4 E 15 17 8 9 1018.4 1018.2 0.0
23/12:30pm 21.6 20.5 15.4 68 3.7 E 15 19 8 10 1019.0 1018.8 0.0
23/12:00pm 21.9 21.2 15.5 67 3.8 E 13 17 7 9 1019.4 1019.2 0.0
23/11:30am 21.8 20.9 14.9 65 4.1 E 13 15 7 8 1019.8 1019.6 0.0
23/11:00am 21.2 19.9 14.8 67 3.8 ESE 15 20 8 11 1020.3 1020.1 0.0
23/10:30am 20.5 20.0 13.9 66 3.8 SE 9 13 5 7 1020.6 1020.5 0.0
23/10:00am 20.8 20.2 14.7 68 3.6 SE 11 15 6 8 1020.7 1020.6 0.0
23/09:30am 19.0 18.4 13.4 70 3.2 SSW 9 15 5 8 1020.8 1020.7 0.0
23/09:00am 18.4 16.9 13.1 71 3.0 SW 13 20 7 11 1020.9 1020.8 0.0
23/08:30am 17.5 15.8 12.4 72 2.8 WSW 13 19 7 10 1020.9 1020.8 0.0
23/08:00am 16.7 13.5 11.8 73 2.7 WSW 20 28 11 15 1020.7 1020.6 0.0
23/07:30am 16.0 11.9 11.4 74 2.5 WSW 24 30 13 16 1020.5 1020.4 0.0
23/07:00am 15.7 11.6 11.3 75 2.4 WSW 24 30 13 16 1020.4 1020.3 0.0
23/06:30am 15.6 11.4 11.0 74 2.5 WSW 24 30 13 16 1020.2 1020.0 0.0
23/06:00am 15.7 11.1 11.1 74 2.5 WSW 26 33 14 18 1020.1 1019.9 0.0
23/05:30am 15.8 11.6 11.2 74 2.5 WSW 24 33 13 18 1019.8 1019.6 0.0
23/05:00am 15.7 11.1 10.9 73 2.6 WSW 26 32 14 17 1019.5 1019.3 0.0
23/04:30am 15.6 10.9 10.8 73 2.6 WSW 26 33 14 18 1019.4 1019.2 0.0
23/04:00am 15.4 10.8 11.0 75 2.3 WSW 26 33 14 18 1019.2 1019.0 0.0
23/03:30am 15.3 11.2 11.3 77 2.2 WSW 24 32 13 17 1019.0 1018.8 0.0
23/03:00am 15.3 11.2 11.5 78 2.0 WSW 24 32 13 17 1019.0 1018.8 0.0
23/02:30am 15.3 11.0 11.9 80 1.9 WSW 26 33 14 18 1019.2 1019.0 0.0
23/02:00am 15.6 11.1 12.5 82 1.7 WSW 28 37 15 20 1019.5 1019.3 0.0
23/01:30am 15.8 11.0 12.9 83 1.6 WSW 30 37 16 20 1019.5 1019.3 0.0
23/01:00am 15.9 11.6 13.2 84 1.5 WSW 28 33 15 18 1019.6 1019.4 0.0
23/12:30am 16.3 12.4 13.4 83 1.6 WSW 26 32 14 17 1019.9 1019.7 0.0
23/12:00am 16.2 12.0 13.5 84 1.5 WSW 28 33 15 18 1020.0 1019.8 0.0
 
Date/Time
EST
Temp
°C
App
Temp
°C
Dew
Point
°C
Rel
Hum
%
Delta-T
°C
Wind Press
QNH
hPa
Press
MSL
hPa
Rain since
9am
mm
Dir  Spd
km/h
Gust
km/h
Spd
kts
Gust
kts
22/11:30pm 16.1 13.2 13.9 87 1.2 W 22 33 12 18 1020.2 1020.0 0.0
22/11:00pm 16.4 13.2 14.2 87 1.3 W 24 30 13 16 1020.1 1019.9 0.0
22/10:30pm 16.9 15.4 15.2 90 1.0 W 17 22 9 12 1020.1 1019.9 0.0
22/10:00pm 18.1 18.8 16.1 88 1.2 WSW 7 11 4 6 1020.0 1019.8 0.0
22/09:30pm 18.7 19.7 16.9 89 1.1 WNW 7 11 4 6 1019.9 1019.7 0.0
22/09:00pm 19.2 19.8 17.7 91 0.9 NNW 11 17 6 9 1019.5 1019.3 0.0
22/08:30pm 19.2 19.9 18.0 93 0.7 NNW 11 17 6 9 1019.1 1018.9 0.0
22/08:00pm 19.3 19.6 17.8 91 0.9 NNW 13 19 7 10 1019.0 1018.8 0.0
22/07:30pm 19.4 19.5 17.5 89 1.2 NNW 13 24 7 13 1018.6 1018.4 0.0
22/07:00pm 19.6 18.5 17.2 86 1.5 N 19 26 10 14 1018.2 1018.0 0.0
22/06:30pm 19.7 18.3 16.9 84 1.7 N 20 30 11 16 1017.8 1017.6 0.0
22/06:00pm 19.9 17.9 16.5 81 2.1 N 22 30 12 16 1017.4 1017.2 0.0
22/05:30pm 20.1 17.7 16.3 79 2.3 NNE 24 35 13 19 1017.0 1016.8 0.0
22/05:00pm 20.2 16.8 15.8 76 2.6 NNE 28 37 15 20 1016.7 1016.5 0.0
22/04:30pm 20.3 16.8 15.5 74 2.9 NNE 28 37 15 20 1016.4 1016.2 0.0
22/04:00pm 20.7 17.3 15.7 73 3.0 NNE 28 43 15 23 1016.0 1015.9 0.0
22/03:30pm 21.0 17.9 15.5 71 3.3 NNE 26 37 14 20 1015.8 1015.7 0.0
22/03:00pm 21.3 18.4 15.2 68 3.6 NNE 24 35 13 19 1015.8 1015.7 0.0
22/02:30pm 21.5 18.4 15.6 69 3.5 NNE 26 37 14 20 1015.8 1015.7 0.0
22/02:00pm 22.3 19.5 14.4 61 4.7 NNE 22 32 12 17 1015.9 1015.8 0.0
22/01:30pm 22.6 19.3 12.8 54 5.6 NNE 22 32 12 17 1016.0 1015.9 0.0
22/01:00pm 22.5 19.5 13.6 57 5.2 N 22 32 12 17 1016.3 1016.1 0.0
22/12:30pm 22.6 20.0 13.9 58 5.1 N 20 32 11 17 1016.7 1016.5 0.0
22/12:00pm 22.3 19.6 13.4 57 5.1 N 20 28 11 15 1017.2 1017.0 0.0
22/11:30am 22.3 19.8 13.4 57 5.2 N 19 26 10 14 1017.9 1017.7 0.0
22/11:00am 21.8 20.2 13.9 61 4.6 N 15 24 8 13 1018.5 1018.3 0.0
22/10:30am 20.8 17.9 13.0 61 4.5 N 20 35 11 19 1018.6 1018.4 0.0
22/10:00am 20.5 18.6 13.0 62 4.3 N 15 26 8 14 1018.9 1018.7 0.0
22/09:30am 19.2 16.2 12.7 66 3.7 N 20 33 11 18 1019.1 1018.9 0.0
22/09:00am 19.1 16.2 12.4 65 3.7 N 19 28 10 15 1019.5 1019.3 1.2
22/08:30am 18.8 15.7 12.1 65 3.7 N 20 28 11 15 1019.7 1019.5 1.2
22/08:00am 18.2 15.3 12.4 69 3.2 N 19 26 10 14 1019.6 1019.4 1.2
22/07:30am 18.1 15.7 12.8 71 3.0 N 17 30 9 16 1019.3 1019.1 1.2
22/07:00am 17.6 14.6 12.5 72 2.8 NNW 20 32 11 17 1018.9 1018.7 1.2
22/06:30am 17.4 14.1 12.7 74 2.6 N 22 33 12 18 1018.4 1018.2 1.2
22/06:00am 17.4 14.1 12.7 74 2.6 N 22 37 12 20 1018.3 1018.1 1.2
22/05:30am 17.3 13.6 12.8 75 2.5 N 24 37 13 20 1018.3 1018.1 1.2
22/05:00am 17.2 14.5 12.9 76 2.4 NNW 19 30 10 16 1018.3 1018.1 1.2
22/04:30am 16.9 15.1 13.2 79 2.1 NNW 15 24 8 13 1018.1 1017.9 1.2
22/04:00am 16.7 14.9 13.2 80 2.0 NNW 15 26 8 14 1018.1 1017.9 1.2
22/03:30am 16.7 15.2 13.0 79 2.1 NNW 13 24 7 13 1018.0 1017.8 1.2
22/03:00am 16.8 14.1 12.9 78 2.2 NNW 19 28 10 15 1017.9 1017.7 1.2
22/02:30am 16.7 14.5 13.2 80 2.0 NNW 17 28 9 15 1018.0 1017.8 1.2
22/02:00am 16.3 13.6 13.6 84 1.5 N 20 28 11 15 1018.4 1018.2 1.0
22/01:30am 16.5 15.0 13.0 80 2.0 NNW 13 24 7 13 1018.9 1018.7 0.6
22/01:00am 16.2 13.9 12.9 81 1.8 N 17 24 9 13 1018.9 1018.7 0.6
22/12:30am 16.3 15.8 13.8 85 1.4 N 9 15 5 8 1019.3 1019.1 0.2
22/12:00am 16.2 15.2 13.5 84 1.5 NNW 11 19 6 10 1018.8 1018.6 0.2
 
Date/Time
EST
Temp
°C
App
Temp
°C
Dew
Point
°C
Rel
Hum
%
Delta-T
°C
Wind Press
QNH
hPa
Press
MSL
hPa
Rain since
9am
mm
Dir  Spd
km/h
Gust
km/h
Spd
kts
Gust
kts
21/11:30pm 16.3 15.6 13.2 82 1.7 N 9 17 5 9 1019.3 1019.1 0.0
21/11:00pm 16.4 15.8 13.5 83 1.6 N 9 13 5 7 1019.7 1019.5 0.0
21/10:30pm 16.5 16.2 13.4 82 1.7 N 7 11 4 6 1019.7 1019.5 0.0
21/10:00pm 16.5 15.9 13.4 82 1.7 N 9 19 5 10 1019.3 1019.1 0.0
21/09:30pm 17.1 14.5 13.2 78 2.2 N 19 28 10 15 1019.0 1018.8 0.0
21/09:00pm 17.3 15.8 13.0 76 2.4 NNW 13 22 7 12 1019.4 1019.2 0.0

Other Formats:

Comma delimited format used in spreadsheet applications
http://www.bom.gov.au/fwo/IDN60801/IDN60801.94599.axf

JavaScript Object Notation format (JSON) in row-major order
http://www.bom.gov.au/fwo/IDN60801/IDN60801.94599.json